Time;durP1;ratioP1;P1;durP2;ratioP2;P2;SDS_P1;SDS_P2;PMS_P1;PMS_P2;Temp;Humidity;BMP_temperature;BMP_pressure;BME280_temperature;BME280_humidity;BME280_pressure;Samples;Min_cycle;Max_cycle;Signal;HPM_P1;HPM_P2
2023/12/06 00:02:19;;;;;;;;;;;0.10;99.90;;;;;;5068326;28;19927;-80
2023/12/06 00:04:44;;;;;;;;;;;0.20;99.90;;;;;;5083585;28;19920;-78
2023/12/06 00:07:10;;;;;;;;;;;0.10;99.90;;;;;;5067361;28;19943;-77
2023/12/06 00:09:36;;;;;;;;;;;0.00;99.90;;;;;;5064767;28;19920;-77
2023/12/06 00:12:01;;;;;;;;;;;0.20;99.90;;;;;;5066571;28;19916;-76
2023/12/06 00:14:27;;;;;;;;;;;0.10;99.90;;;;;;5048580;28;19924;-76
2023/12/06 00:16:56;;;;;;;;;;;0.10;99.90;;;;;;5066022;28;19920;-78
2023/12/06 00:19:22;;;;;;;;;;;0.20;99.90;;;;;;5082526;28;19916;-77
2023/12/06 00:21:47;;;;;;;;;;;0.20;99.90;;;;;;5049529;28;19932;-75
2023/12/06 00:24:13;;;;;;;;;;;0.20;99.90;;;;;;5064758;28;20011;-81
2023/12/06 00:26:42;;;;;;;;;;;0.20;99.90;;;;;;5064915;28;20293;-79
2023/12/06 00:29:07;;;;;;;;;;;0.10;99.90;;;;;;5051258;28;20373;-79
2023/12/06 00:31:33;;;;;;;;;;;0.10;99.90;;;;;;5067739;28;19920;-80
2023/12/06 00:33:59;;;;;;;;;;;0.20;99.90;;;;;;5067099;28;19928;-81
2023/12/06 00:36:24;;;;;;;;;;;0.20;99.90;;;;;;5050398;28;19928;-84
2023/12/06 00:38:50;;;;;;;;;;;0.30;99.90;;;;;;5066705;28;19927;-78
2023/12/06 00:41:15;;;;;;;;;;;0.20;99.90;;;;;;5065919;28;20395;-77
2023/12/06 00:43:41;;;;;;;;;;;0.10;99.90;;;;;;5047616;28;19982;-77
2023/12/06 00:46:07;;;;;;;;;;;0.20;99.90;;;;;;5065869;28;19939;-79
2023/12/06 00:48:32;;;;;;;;;;;0.00;99.90;;;;;;5048769;28;19920;-77
2023/12/06 00:50:58;;;;;;;;;;;0.10;99.90;;;;;;5065556;28;19923;-79
2023/12/06 00:53:24;;;;;;;;;;;0.10;99.90;;;;;;5049378;28;19932;-78
2023/12/06 00:55:49;;;;;;;;;;;0.00;99.90;;;;;;5067204;28;19920;-76
2023/12/06 00:58:15;;;;;;;;;;;0.20;99.90;;;;;;5065866;28;19920;-77
2023/12/06 01:00:41;;;;;;;;;;;0.10;99.90;;;;;;5066171;28;19932;-78
2023/12/06 01:03:06;;;;;;;;;;;0.00;99.90;;;;;;5067050;28;19924;-78
2023/12/06 01:05:32;;;;;;;;;;;-0.10;99.90;;;;;;5068600;28;20373;-81
2023/12/06 01:07:57;;;;;;;;;;;0.20;99.90;;;;;;5070498;28;19916;-79
2023/12/06 01:10:23;;;;;;;;;;;0.20;99.90;;;;;;5069199;28;20365;-79
2023/12/06 01:12:49;;;;;;;;;;;0.00;99.90;;;;;;5069267;28;19920;-79
2023/12/06 01:15:14;;;;;;;;;;;0.10;99.90;;;;;;5070780;28;19916;-79
2023/12/06 01:17:40;;;;;;;;;;;0.10;99.90;;;;;;5068978;28;19969;-77
2023/12/06 01:20:06;;;;;;;;;;;0.00;99.90;;;;;;5068919;28;19984;-78
2023/12/06 01:22:31;;;;;;;;;;;0.20;99.90;;;;;;5069194;28;20266;-78
2023/12/06 01:24:57;;;;;;;;;;;0.20;99.90;;;;;;5086381;28;19920;-75
2023/12/06 01:27:23;;;;;;;;;;;0.20;99.90;;;;;;5084761;28;19916;-78
2023/12/06 01:29:48;;;;;;;;;;;0.10;99.90;;;;;;5067153;28;19970;-76
2023/12/06 01:32:14;;;;;;;;;;;0.20;99.90;;;;;;5068654;28;19928;-79
2023/12/06 01:34:39;;;;;;;;;;;0.20;99.90;;;;;;5050644;28;19982;-78
2023/12/06 01:37:05;;;;;;;;;;;0.20;99.90;;;;;;5086318;28;19920;-77
2023/12/06 01:39:31;;;;;;;;;;;0.10;99.90;;;;;;5066995;28;19974;-78
2023/12/06 01:41:57;;;;;;;;;;;0.10;99.90;;;;;;5052005;28;19935;-77
2023/12/06 01:44:22;;;;;;;;;;;0.20;99.90;;;;;;5068863;28;19920;-75
2023/12/06 01:46:48;;;;;;;;;;;0.30;99.90;;;;;;5069008;28;19920;-78
2023/12/06 01:49:13;;;;;;;;;;;0.70;99.90;;;;;;5083814;28;19977;-77
2023/12/06 01:51:40;;;;;;;;;;;0.70;99.90;;;;;;5068348;28;20285;-77
2023/12/06 01:54:05;;;;;;;;;;;0.30;99.90;;;;;;5068601;28;19921;-81
2023/12/06 01:56:31;;;;;;;;;;;0.20;99.90;;;;;;5070362;28;19931;-80
2023/12/06 01:58:58;;;;;;;;;;;0.40;99.90;;;;;;5068661;28;19920;-76
2023/12/06 02:01:24;;;;;;;;;;;0.30;99.90;;;;;;5067776;28;19928;-80
2023/12/06 02:03:49;;;;;;;;;;;0.40;99.90;;;;;;5069354;28;20329;-78
2023/12/06 02:06:15;;;;;;;;;;;0.40;99.90;;;;;;5052568;28;19958;-75
2023/12/06 02:08:42;;;;;;;;;;;0.30;99.90;;;;;;5068396;28;20042;-77
2023/12/06 02:11:07;;;;;;;;;;;0.30;99.90;;;;;;5051584;28;19965;-79
2023/12/06 02:13:34;;;;;;;;;;;0.40;99.90;;;;;;5033373;28;20304;-78
2023/12/06 02:16:00;;;;;;;;;;;0.40;99.90;;;;;;5066727;28;19925;-80
2023/12/06 02:18:27;;;;;;;;;;;0.70;99.90;;;;;;5067288;28;20290;-79
2023/12/06 02:20:53;;;;;;;;;;;0.80;99.90;;;;;;5069506;28;20396;-78
2023/12/06 02:23:20;;;;;;;;;;;0.20;99.90;;;;;;5068057;28;19973;-77
2023/12/06 02:25:45;;;;;;;;;;;0.30;99.90;;;;;;5068664;28;19920;-78
2023/12/06 02:28:11;;;;;;;;;;;1.00;99.90;;;;;;5085098;28;19916;-78
2023/12/06 02:30:36;;;;;;;;;;;0.40;99.90;;;;;;5068089;28;19931;-77
2023/12/06 02:33:03;;;;;;;;;;;1.10;99.90;;;;;;5067728;28;19924;-80
2023/12/06 02:35:30;;;;;;;;;;;0.40;99.90;;;;;;5068286;28;20254;-79
2023/12/06 02:37:57;;;;;;;;;;;0.50;99.90;;;;;;5067021;28;19920;-79
2023/12/06 02:40:25;;;;;;;;;;;0.20;99.90;;;;;;5067386;28;19924;-80
2023/12/06 02:42:50;;;;;;;;;;;0.50;99.90;;;;;;5066766;28;20023;-78
2023/12/06 02:45:16;;;;;;;;;;;0.50;99.90;;;;;;5051142;28;20031;-80
2023/12/06 02:47:42;;;;;;;;;;;0.70;99.90;;;;;;5050552;28;19923;-78
2023/12/06 02:50:07;;;;;;;;;;;0.30;99.90;;;;;;5052306;28;19923;-78
2023/12/06 02:52:33;;;;;;;;;;;0.50;99.90;;;;;;5067450;28;19969;-79
2023/12/06 02:54:58;;;;;;;;;;;0.60;99.90;;;;;;5067717;28;19920;-77
2023/12/06 02:57:24;;;;;;;;;;;0.50;99.90;;;;;;5068979;28;20058;-78
2023/12/06 02:59:50;;;;;;;;;;;0.30;99.90;;;;;;5048717;28;19917;-79
2023/12/06 03:02:15;;;;;;;;;;;0.60;99.90;;;;;;5067705;28;20296;-78
2023/12/06 03:04:41;;;;;;;;;;;0.60;99.90;;;;;;5084270;28;19924;-81
2023/12/06 03:07:06;;;;;;;;;;;0.40;99.90;;;;;;5051496;28;19916;-77
2023/12/06 03:09:32;;;;;;;;;;;1.50;99.90;;;;;;5083775;28;20377;-77
2023/12/06 03:11:57;;;;;;;;;;;0.60;99.90;;;;;;5048704;28;20304;-81
2023/12/06 03:14:23;;;;;;;;;;;0.60;99.90;;;;;;5050100;28;20002;-80
2023/12/06 03:16:49;;;;;;;;;;;0.50;99.90;;;;;;5082313;28;19921;-78
2023/12/06 03:19:14;;;;;;;;;;;0.70;99.90;;;;;;5082429;28;19924;-80
2023/12/06 03:21:40;;;;;;;;;;;0.60;99.90;;;;;;5050275;28;19975;-77
2023/12/06 03:24:06;;;;;;;;;;;0.40;99.90;;;;;;5050697;28;19928;-79
2023/12/06 03:26:31;;;;;;;;;;;0.50;99.90;;;;;;5066609;28;19924;-81
2023/12/06 03:28:57;;;;;;;;;;;0.80;99.90;;;;;;5083871;28;19969;-81
2023/12/06 03:31:23;;;;;;;;;;;0.40;99.90;;;;;;5065552;28;19986;-78
2023/12/06 03:33:48;;;;;;;;;;;0.90;99.90;;;;;;5065074;28;19928;-81
2023/12/06 03:36:15;;;;;;;;;;;0.50;99.90;;;;;;5065651;28;19920;-80
2023/12/06 03:38:41;;;;;;;;;;;0.60;99.90;;;;;;5067637;28;19921;-80
2023/12/06 03:41:06;;;;;;;;;;;0.40;99.90;;;;;;5084195;28;19932;-78
2023/12/06 03:43:32;;;;;;;;;;;0.20;99.90;;;;;;5083362;28;20011;-80
2023/12/06 03:45:57;;;;;;;;;;;0.50;99.90;;;;;;5067620;28;20381;-78
2023/12/06 03:48:23;;;;;;;;;;;0.50;99.90;;;;;;5067102;28;19955;-81
2023/12/06 03:50:49;;;;;;;;;;;0.40;99.90;;;;;;5048579;28;20053;-82
2023/12/06 03:53:14;;;;;;;;;;;0.40;99.90;;;;;;5067424;28;19923;-80
2023/12/06 03:55:40;;;;;;;;;;;0.80;99.90;;;;;;5055509;28;19919;-78
2023/12/06 03:58:06;;;;;;;;;;;0.50;99.90;;;;;;5035679;28;20612;-79
2023/12/06 04:00:32;;;;;;;;;;;0.80;99.90;;;;;;5066157;28;19920;-81
2023/12/06 04:02:57;;;;;;;;;;;0.60;99.90;;;;;;5068071;28;20284;-79
2023/12/06 04:05:23;;;;;;;;;;;0.50;99.90;;;;;;5066478;28;19931;-78
2023/12/06 04:07:49;;;;;;;;;;;0.60;99.90;;;;;;5065533;28;19920;-81
2023/12/06 04:10:21;;;;;;;;;;;0.60;99.90;;;;;;5065993;28;19931;-81
2023/12/06 04:12:46;;;;;;;;;;;0.80;99.90;;;;;;5065513;28;19935;-79
2023/12/06 04:15:12;;;;;;;;;;;0.70;99.90;;;;;;5065736;28;20030;-83
2023/12/06 04:17:38;;;;;;;;;;;0.70;99.90;;;;;;5032505;28;19924;-78
2023/12/06 04:20:05;;;;;;;;;;;0.60;99.90;;;;;;5066422;28;19924;-78
2023/12/06 04:22:31;;;;;;;;;;;0.70;99.90;;;;;;5050057;28;19990;-79
2023/12/06 04:24:57;;;;;;;;;;;0.50;99.90;;;;;;5066721;28;19975;-78
2023/12/06 04:27:22;;;;;;;;;;;0.50;99.90;;;;;;5066588;28;19917;-77
2023/12/06 04:29:48;;;;;;;;;;;1.90;99.90;;;;;;5032057;28;19946;-79
2023/12/06 04:32:13;;;;;;;;;;;0.60;99.90;;;;;;5049949;28;19920;-77
2023/12/06 04:34:46;;;;;;;;;;;1.00;99.90;;;;;;5048538;28;19928;-78
2023/12/06 04:37:12;;;;;;;;;;;0.80;99.90;;;;;;5067160;28;20373;-81
2023/12/06 04:39:37;;;;;;;;;;;1.10;99.90;;;;;;5051076;28;19941;-82
2023/12/06 04:42:03;;;;;;;;;;;1.10;99.90;;;;;;5053266;28;19970;-80
2023/12/06 04:44:29;;;;;;;;;;;0.80;99.90;;;;;;5086623;28;19927;-79
2023/12/06 04:46:54;;;;;;;;;;;2.70;99.90;;;;;;5071548;28;20012;-80
2023/12/06 04:49:20;;;;;;;;;;;0.70;99.90;;;;;;5087268;28;19923;-78
2023/12/06 04:51:45;;;;;;;;;;;1.40;99.90;;;;;;5069638;28;19916;-79
2023/12/06 04:54:11;;;;;;;;;;;1.30;99.90;;;;;;5035747;28;19960;-79
2023/12/06 04:56:37;;;;;;;;;;;0.70;99.90;;;;;;5070813;28;20312;-81
2023/12/06 04:59:02;;;;;;;;;;;1.70;99.90;;;;;;5052827;28;19931;-79
2023/12/06 05:01:28;;;;;;;;;;;1.60;99.90;;;;;;5070653;28;19931;-81
2023/12/06 05:03:54;;;;;;;;;;;0.80;99.90;;;;;;5053426;28;20407;-78
2023/12/06 05:06:19;;;;;;;;;;;1.40;99.90;;;;;;5069246;28;20010;-79
2023/12/06 05:08:45;;;;;;;;;;;1.60;99.90;;;;;;5070747;28;20285;-79
2023/12/06 05:11:10;;;;;;;;;;;0.80;99.90;;;;;;5035707;28;19939;-79
2023/12/06 05:13:36;;;;;;;;;;;1.00;99.90;;;;;;5053395;28;19924;-83
2023/12/06 05:16:01;;;;;;;;;;;0.70;99.90;;;;;;5053692;28;19916;-80
2023/12/06 05:18:28;;;;;;;;;;;0.80;99.90;;;;;;5055098;28;20203;-80
2023/12/06 05:20:54;;;;;;;;;;;0.90;99.90;;;;;;5069100;28;20287;-81
2023/12/06 05:23:20;;;;;;;;;;;0.80;99.90;;;;;;5068616;28;19931;-77
2023/12/06 05:25:45;;;;;;;;;;;0.90;99.90;;;;;;5070813;28;19917;-79
2023/12/06 05:28:11;;;;;;;;;;;1.40;99.90;;;;;;5052069;28;19916;-78
2023/12/06 05:30:36;;;;;;;;;;;1.50;99.90;;;;;;5069849;28;20434;-79
2023/12/06 05:33:02;;;;;;;;;;;0.80;99.90;;;;;;5034297;28;20297;-79
2023/12/06 05:35:27;;;;;;;;;;;0.90;99.90;;;;;;5069237;28;19924;-78
2023/12/06 05:37:53;;;;;;;;;;;1.10;99.90;;;;;;5067883;28;19963;-82
2023/12/06 05:40:20;;;;;;;;;;;1.10;99.90;;;;;;5051879;28;20265;-80
2023/12/06 05:42:46;;;;;;;;;;;0.90;99.90;;;;;;5086564;28;20429;-81
2023/12/06 05:45:12;;;;;;;;;;;0.90;99.90;;;;;;5052011;28;20003;-78
2023/12/06 05:47:37;;;;;;;;;;;0.90;99.90;;;;;;5068709;28;20089;-79
2023/12/06 05:50:03;;;;;;;;;;;1.50;99.90;;;;;;5066732;28;19924;-79
2023/12/06 05:52:29;;;;;;;;;;;1.10;99.90;;;;;;5085727;28;20966;-79
2023/12/06 05:54:54;;;;;;;;;;;1.30;99.90;;;;;;5068428;28;20289;-80
2023/12/06 05:57:20;;;;;;;;;;;1.20;99.90;;;;;;5052574;28;19916;-80
2023/12/06 05:59:46;;;;;;;;;;;1.50;99.90;;;;;;5035305;28;19926;-77
2023/12/06 06:02:11;;;;;;;;;;;1.50;99.90;;;;;;5069376;28;20378;-76
2023/12/06 06:04:37;;;;;;;;;;;1.10;99.90;;;;;;5068139;28;20011;-78
2023/12/06 06:07:02;;;;;;;;;;;2.00;99.90;;;;;;5068597;28;19925;-78
2023/12/06 06:09:28;;;;;;;;;;;1.00;99.90;;;;;;5087635;28;19923;-79
2023/12/06 06:11:54;;;;;;;;;;;1.40;99.90;;;;;;5052260;28;19924;-79
2023/12/06 06:14:19;;;;;;;;;;;1.90;99.90;;;;;;5034507;28;20328;-79
2023/12/06 06:16:45;;;;;;;;;;;1.20;99.90;;;;;;5082453;28;20029;-80
2023/12/06 06:19:10;;;;;;;;;;;1.10;99.90;;;;;;5066110;28;19920;-77
2023/12/06 06:21:36;;;;;;;;;;;1.10;99.90;;;;;;5067616;28;19920;-78
2023/12/06 06:24:02;;;;;;;;;;;1.40;99.90;;;;;;5069027;28;20011;-77
2023/12/06 06:26:27;;;;;;;;;;;1.10;99.90;;;;;;5034961;28;20365;-78
2023/12/06 06:28:53;;;;;;;;;;;1.30;99.90;;;;;;5085449;28;19961;-80
2023/12/06 06:31:19;;;;;;;;;;;1.40;99.90;;;;;;5067493;28;19920;-80
2023/12/06 06:33:44;;;;;;;;;;;1.70;99.90;;;;;;5067205;28;20340;-79
2023/12/06 06:36:10;;;;;;;;;;;1.90;99.90;;;;;;5068259;28;19964;-79
2023/12/06 06:38:37;;;;;;;;;;;1.90;99.90;;;;;;5067775;28;20431;-78
2023/12/06 06:41:03;;;;;;;;;;;2.00;99.90;;;;;;5066765;28;19946;-79
2023/12/06 06:43:29;;;;;;;;;;;1.60;99.90;;;;;;5067462;28;19921;-78
2023/12/06 06:45:54;;;;;;;;;;;1.20;99.90;;;;;;5066216;28;20266;-80
2023/12/06 06:48:20;;;;;;;;;;;1.40;99.90;;;;;;5051038;28;19920;-78
2023/12/06 06:50:46;;;;;;;;;;;1.80;99.90;;;;;;5051528;28;20384;-80
2023/12/06 06:53:11;;;;;;;;;;;1.70;99.90;;;;;;5066879;28;19916;-79
2023/12/06 06:55:37;;;;;;;;;;;1.90;99.90;;;;;;5051221;28;20003;-80
2023/12/06 06:58:03;;;;;;;;;;;2.00;99.90;;;;;;5065813;28;19924;-78
2023/12/06 07:00:29;;;;;;;;;;;1.60;99.90;;;;;;5051233;28;19932;-79
2023/12/06 07:02:54;;;;;;;;;;;1.20;99.90;;;;;;5065991;28;19920;-78
2023/12/06 07:05:20;;;;;;;;;;;1.90;99.90;;;;;;5066792;28;19920;-79
2023/12/06 07:07:45;;;;;;;;;;;1.60;99.90;;;;;;5066798;28;19973;-80
2023/12/06 07:10:11;;;;;;;;;;;1.80;99.90;;;;;;5050658;28;20289;-78
2023/12/06 07:12:37;;;;;;;;;;;1.60;99.90;;;;;;5068003;28;19978;-77
2023/12/06 07:15:03;;;;;;;;;;;1.90;99.90;;;;;;5051133;28;20416;-80
2023/12/06 07:17:29;;;;;;;;;;;1.40;99.90;;;;;;5082411;28;19920;-78
2023/12/06 07:19:55;;;;;;;;;;;1.40;99.90;;;;;;5051584;28;19924;-80
2023/12/06 07:22:22;;;;;;;;;;;2.10;99.90;;;;;;5050398;28;19931;-79
2023/12/06 07:24:48;;;;;;;;;;;2.30;99.90;;;;;;5084856;28;19916;-79
2023/12/06 07:27:14;;;;;;;;;;;1.90;99.90;;;;;;5067374;28;19965;-80
2023/12/06 07:29:40;;;;;;;;;;;1.30;99.90;;;;;;5066361;28;19930;-78
2023/12/06 07:32:06;;;;;;;;;;;2.10;99.90;;;;;;5067195;28;20308;-79
2023/12/06 07:34:31;;;;;;;;;;;1.80;99.90;;;;;;5067410;28;20031;-79
2023/12/06 07:36:58;;;;;;;;;;;1.60;99.90;;;;;;5034209;28;19938;-77
2023/12/06 07:39:23;;;;;;;;;;;1.60;99.90;;;;;;5067564;28;19916;-78
2023/12/06 07:41:50;;;;;;;;;;;2.20;99.90;;;;;;5050966;28;19985;-80
2023/12/06 07:44:17;;;;;;;;;;;1.80;99.90;;;;;;5067204;28;19927;-79
2023/12/06 07:46:43;;;;;;;;;;;1.70;99.90;;;;;;5082729;28;20404;-78
2023/12/06 07:49:09;;;;;;;;;;;2.50;99.90;;;;;;5069634;28;19924;-79
2023/12/06 07:51:36;;;;;;;;;;;1.60;99.90;;;;;;5041404;28;19924;-79
2023/12/06 07:54:01;;;;;;;;;;;2.20;99.90;;;;;;5083946;28;20272;-83
2023/12/06 07:56:27;;;;;;;;;;;2.20;99.90;;;;;;5064112;28;20450;-83
2023/12/06 07:58:57;;;;;;;;;;;2.10;99.90;;;;;;5067327;28;20284;-81
2023/12/06 08:01:24;;;;;;;;;;;1.80;99.90;;;;;;5066726;28;20334;-82
2023/12/06 08:03:49;;;;;;;;;;;1.70;99.90;;;;;;5065072;28;19924;-78
2023/12/06 08:06:15;;;;;;;;;;;2.10;99.90;;;;;;5067263;28;20254;-81
2023/12/06 08:08:41;;;;;;;;;;;2.00;99.90;;;;;;5066550;28;19966;-80
2023/12/06 08:11:07;;;;;;;;;;;2.30;99.90;;;;;;5083626;28;19928;-81
2023/12/06 08:13:32;;;;;;;;;;;1.60;99.90;;;;;;5054970;28;19920;-80
2023/12/06 08:15:58;;;;;;;;;;;2.20;99.90;;;;;;5071285;28;20377;-84
2023/12/06 08:18:23;;;;;;;;;;;2.20;99.90;;;;;;5072583;28;19974;-79
2023/12/06 08:20:49;;;;;;;;;;;1.70;99.90;;;;;;5053142;28;20381;-77
2023/12/06 08:23:15;;;;;;;;;;;2.20;99.90;;;;;;5071489;28;19916;-77
2023/12/06 08:25:41;;;;;;;;;;;2.30;99.90;;;;;;5071325;28;20018;-88
2023/12/06 08:28:07;;;;;;;;;;;1.80;99.90;;;;;;5054817;28;19927;-82
2023/12/06 08:30:32;;;;;;;;;;;3.00;99.90;;;;;;5073208;28;19920;-82
2023/12/06 08:32:58;;;;;;;;;;;2.40;99.90;;;;;;5070547;28;19920;-83
2023/12/06 08:35:23;;;;;;;;;;;1.80;99.90;;;;;;5091770;28;19943;-83
2023/12/06 08:37:49;;;;;;;;;;;2.20;99.90;;;;;;5043042;28;19916;-83
2023/12/06 08:40:15;;;;;;;;;;;2.00;99.90;;;;;;5078081;28;19946;-88
2023/12/06 08:42:41;;;;;;;;;;;2.10;99.90;;;;;;5087823;28;19927;-88
2023/12/06 08:45:07;;;;;;;;;;;3.20;99.90;;;;;;5093820;28;19916;-85
2023/12/06 08:47:33;;;;;;;;;;;2.10;99.90;;;;;;5081203;28;20025;-86
2023/12/06 08:49:58;;;;;;;;;;;2.10;99.90;;;;;;5089329;28;20369;-88
2023/12/06 08:52:24;;;;;;;;;;;2.00;99.90;;;;;;5081327;28;19924;-83
2023/12/06 08:54:50;;;;;;;;;;;2.20;99.90;;;;;;5091057;28;20365;-90
2023/12/06 08:57:15;;;;;;;;;;;2.00;99.90;;;;;;5086878;28;19920;-83
2023/12/06 08:59:41;;;;;;;;;;;2.10;99.90;;;;;;5067708;28;19918;-86
2023/12/06 09:02:06;;;;;;;;;;;2.10;99.90;;;;;;5083762;28;19920;-85
2023/12/06 09:04:33;;;;;;;;;;;2.50;99.90;;;;;;5084989;28;19937;-88
2023/12/06 09:06:58;;;;;;;;;;;3.20;99.90;;;;;;5079296;28;19973;-88
2023/12/06 09:09:24;;;;;;;;;;;2.00;99.90;;;;;;5095953;28;19920;-85
2023/12/06 09:11:50;;;;;;;;;;;2.70;99.90;;;;;;5081842;28;19923;-86
2023/12/06 09:14:15;;;;;;;;;;;1.90;99.90;;;;;;5081781;28;20323;-88
2023/12/06 09:16:41;;;;;;;;;;;2.30;99.90;;;;;;5078020;28;19932;-82
2023/12/06 09:19:07;;;;;;;;;;;2.40;99.90;;;;;;5056631;28;20271;-83
2023/12/06 09:21:40;;;;;;;;;;;2.70;99.90;;;;;;5084649;28;20301;-84
2023/12/06 09:24:06;;;;;;;;;;;2.10;99.90;;;;;;5076306;28;19916;-85
2023/12/06 09:26:32;;;;;;;;;;;2.30;99.90;;;;;;5077751;28;19916;-86
2023/12/06 09:28:57;;;;;;;;;;;2.60;99.90;;;;;;5081414;28;19966;-88
2023/12/06 09:31:23;;;;;;;;;;;2.80;99.90;;;;;;5058161;28;19920;-87
2023/12/06 09:33:49;;;;;;;;;;;2.80;99.90;;;;;;5073780;28;19965;-85
2023/12/06 09:36:14;;;;;;;;;;;2.40;99.90;;;;;;5072928;28;19920;-85
2023/12/06 09:38:40;;;;;;;;;;;2.90;99.90;;;;;;5056784;28;19920;-85
2023/12/06 09:41:06;;;;;;;;;;;2.70;99.90;;;;;;5072702;28;19920;-88
2023/12/06 09:43:31;;;;;;;;;;;2.40;99.90;;;;;;5065025;28;19974;-87
2023/12/06 09:45:57;;;;;;;;;;;2.70;99.90;;;;;;5070773;28;19963;-86
2023/12/06 09:48:22;;;;;;;;;;;2.70;99.90;;;;;;5054027;28;19924;-90
2023/12/06 09:50:48;;;;;;;;;;;2.50;99.90;;;;;;5052306;28;19916;-86
2023/12/06 09:53:14;;;;;;;;;;;2.90;99.90;;;;;;5071074;28;19924;-88
2023/12/06 09:55:39;;;;;;;;;;;2.50;99.90;;;;;;5071482;28;20373;-86
2023/12/06 09:58:06;;;;;;;;;;;2.40;99.90;;;;;;5063153;28;20427;-84
2023/12/06 10:00:31;;;;;;;;;;;2.40;99.90;;;;;;5061614;28;19928;-86
2023/12/06 10:02:57;;;;;;;;;;;2.90;99.90;;;;;;5072083;28;20311;-88
2023/12/06 10:05:23;;;;;;;;;;;2.70;99.90;;;;;;5068697;28;19923;-85
2023/12/06 10:07:49;;;;;;;;;;;2.50;99.90;;;;;;5054021;28;19968;-86
2023/12/06 10:10:15;;;;;;;;;;;2.70;99.90;;;;;;5054323;28;20427;-85
2023/12/06 10:12:45;;;;;;;;;;;2.80;99.90;;;;;;5071357;28;20029;-86
2023/12/06 10:15:10;;;;;;;;;;;2.40;99.90;;;;;;5069298;28;20254;-86
2023/12/06 10:17:36;;;;;;;;;;;2.60;99.90;;;;;;5071037;28;19923;-86
2023/12/06 10:20:04;;;;;;;;;;;2.50;99.90;;;;;;5071338;28;19966;-85
2023/12/06 10:22:29;;;;;;;;;;;2.40;99.90;;;;;;5072059;28;19970;-85
2023/12/06 10:24:56;;;;;;;;;;;2.50;99.90;;;;;;5092388;28;19928;-85
2023/12/06 10:27:23;;;;;;;;;;;2.80;99.90;;;;;;5074667;28;19920;-85
2023/12/06 10:29:52;;;;;;;;;;;2.80;99.90;;;;;;5088253;28;19920;-84
2023/12/06 10:32:19;;;;;;;;;;;2.30;99.90;;;;;;5086670;28;20023;-85
2023/12/06 10:34:45;;;;;;;;;;;2.40;99.90;;;;;;5072373;28;19942;-85
2023/12/06 10:37:11;;;;;;;;;;;2.70;99.90;;;;;;5072579;28;20324;-85
2023/12/06 10:39:37;;;;;;;;;;;2.90;99.90;;;;;;5088174;28;19920;-87
2023/12/06 10:42:12;;;;;;;;;;;2.60;99.90;;;;;;5069127;28;19974;-83
2023/12/06 10:44:38;;;;;;;;;;;2.60;99.90;;;;;;5068107;28;19923;-85
2023/12/06 10:47:05;;;;;;;;;;;3.00;99.90;;;;;;5069783;28;20347;-85
2023/12/06 10:49:32;;;;;;;;;;;2.80;99.90;;;;;;5068843;28;20015;-85
2023/12/06 10:51:58;;;;;;;;;;;2.30;99.90;;;;;;5086896;28;19920;-83
2023/12/06 10:54:25;;;;;;;;;;;2.40;99.90;;;;;;5070472;28;19925;-82
2023/12/06 10:56:52;;;;;;;;;;;2.50;99.90;;;;;;5072540;28;20328;-85
2023/12/06 10:59:20;;;;;;;;;;;2.50;99.90;;;;;;5069225;28;19924;-87
2023/12/06 11:01:46;;;;;;;;;;;2.50;99.90;;;;;;5069089;28;20404;-84
2023/12/06 11:04:12;;;;;;;;;;;2.60;99.90;;;;;;5070502;28;19973;-83
2023/12/06 11:06:41;;;;;;;;;;;2.50;99.90;;;;;;5070852;28;19916;-83
2023/12/06 11:09:27;;;;;;;;;;;3.60;99.90;;;;;;5071564;28;19920;-83
2023/12/06 11:11:59;;;;;;;;;;;2.50;99.90;;;;;;5069981;28;20322;-87
2023/12/06 11:14:30;;;;;;;;;;;2.90;99.90;;;;;;5068066;28;20320;-79
2023/12/06 11:17:09;;;;;;;;;;;2.60;99.90;;;;;;5065423;28;19921;-77
2023/12/06 11:19:35;;;;;;;;;;;2.70;99.90;;;;;;5083002;28;19920;-77
2023/12/06 11:22:02;;;;;;;;;;;2.70;99.90;;;;;;5067013;28;19928;-77
2023/12/06 11:24:28;;;;;;;;;;;2.70;99.90;;;;;;5066330;28;19920;-77
2023/12/06 11:26:54;;;;;;;;;;;3.00;99.90;;;;;;5081004;28;19930;-80
2023/12/06 11:29:21;;;;;;;;;;;2.70;99.90;;;;;;5051863;28;20289;-77
2023/12/06 11:31:51;;;;;;;;;;;2.70;99.90;;;;;;5067703;28;20297;-78
2023/12/06 11:34:17;;;;;;;;;;;2.80;99.90;;;;;;5067227;28;19916;-77
2023/12/06 11:36:43;;;;;;;;;;;3.80;99.90;;;;;;5051672;28;20316;-77
2023/12/06 11:39:15;;;;;;;;;;;2.80;99.90;;;;;;5071466;28;20042;-77
2023/12/06 11:41:52;;;;;;;;;;;2.80;99.90;;;;;;5085799;28;20008;-77
2023/12/06 11:44:18;;;;;;;;;;;2.70;99.90;;;;;;5065229;28;20399;-77
2023/12/06 11:46:50;;;;;;;;;;;2.80;99.90;;;;;;5066759;28;20227;-77
2023/12/06 11:49:16;;;;;;;;;;;2.80;99.90;;;;;;5030856;28;19916;-77
2023/12/06 11:51:42;;;;;;;;;;;2.70;99.90;;;;;;5081521;28;19927;-76
2023/12/06 11:54:08;;;;;;;;;;;2.80;99.90;;;;;;5067071;28;19917;-76
2023/12/06 11:56:33;;;;;;;;;;;2.80;99.90;;;;;;5067580;28;20003;-80
2023/12/06 11:59:02;;;;;;;;;;;2.70;99.90;;;;;;5063015;28;20324;-77
2023/12/06 12:01:29;;;;;;;;;;;2.80;99.90;;;;;;5066991;28;19924;-76
2023/12/06 12:03:54;;;;;;;;;;;2.80;99.90;;;;;;5066442;28;19924;-78
2023/12/06 12:06:20;;;;;;;;;;;2.80;99.90;;;;;;5065791;28;20380;-77
2023/12/06 12:08:47;;;;;;;;;;;2.80;99.90;;;;;;5065861;28;20262;-78
2023/12/06 12:11:13;;;;;;;;;;;2.70;99.90;;;;;;5082553;28;19924;-77
2023/12/06 12:13:40;;;;;;;;;;;2.90;99.90;;;;;;5065910;28;19916;-76
2023/12/06 12:16:06;;;;;;;;;;;2.60;99.90;;;;;;5066508;28;19993;-78
2023/12/06 12:18:32;;;;;;;;;;;2.70;99.90;;;;;;5068431;28;20373;-77
2023/12/06 12:20:58;;;;;;;;;;;2.90;99.90;;;;;;5047910;28;19928;-77
2023/12/06 12:23:28;;;;;;;;;;;2.70;99.90;;;;;;5067231;28;19917;-77
2023/12/06 12:25:54;;;;;;;;;;;2.70;99.90;;;;;;5065161;28;20273;-76
2023/12/06 12:28:20;;;;;;;;;;;2.60;99.90;;;;;;5065230;28;19924;-78
2023/12/06 12:30:47;;;;;;;;;;;2.50;99.90;;;;;;5065600;28;20289;-76
2023/12/06 12:33:13;;;;;;;;;;;2.60;99.90;;;;;;5067213;28;19927;-78
2023/12/06 12:35:39;;;;;;;;;;;2.50;99.90;;;;;;5062586;28;19927;-78
2023/12/06 12:38:05;;;;;;;;;;;3.10;99.90;;;;;;5065506;28;20342;-76
2023/12/06 12:40:31;;;;;;;;;;;2.60;99.90;;;;;;5065079;28;20392;-77
2023/12/06 12:42:57;;;;;;;;;;;2.50;99.90;;;;;;5067362;28;19929;-76
2023/12/06 12:45:26;;;;;;;;;;;2.70;99.90;;;;;;5065598;28;20396;-77
2023/12/06 12:47:53;;;;;;;;;;;2.60;99.90;;;;;;5033523;28;20057;-77
2023/12/06 12:50:19;;;;;;;;;;;2.60;99.90;;;;;;5065872;28;19963;-78
2023/12/06 12:52:44;;;;;;;;;;;2.50;99.90;;;;;;5064489;28;20016;-78
2023/12/06 12:55:10;;;;;;;;;;;2.60;99.90;;;;;;5066957;28;19978;-77
2023/12/06 12:57:39;;;;;;;;;;;2.60;99.90;;;;;;5066358;28;19927;-78
2023/12/06 13:00:05;;;;;;;;;;;2.60;99.90;;;;;;5048998;28;19924;-76
2023/12/06 13:02:31;;;;;;;;;;;2.70;99.90;;;;;;5086712;28;19932;-76
2023/12/06 13:04:57;;;;;;;;;;;3.40;99.90;;;;;;5069299;28;19924;-76
2023/12/06 13:07:22;;;;;;;;;;;2.90;99.90;;;;;;5068514;28;19920;-77
2023/12/06 13:09:49;;;;;;;;;;;2.70;99.90;;;;;;5052454;28;20017;-76
2023/12/06 13:12:14;;;;;;;;;;;2.40;99.90;;;;;;5066202;28;19924;-77
2023/12/06 13:14:43;;;;;;;;;;;2.70;99.90;;;;;;5069979;28;19917;-77
2023/12/06 13:17:09;;;;;;;;;;;2.70;99.90;;;;;;5067719;28;19920;-78
2023/12/06 13:19:36;;;;;;;;;;;2.70;99.90;;;;;;5070008;28;19924;-76
2023/12/06 13:22:01;;;;;;;;;;;2.70;99.90;;;;;;5068821;28;19920;-78
2023/12/06 13:24:27;;;;;;;;;;;3.20;99.90;;;;;;5070422;28;20274;-77
2023/12/06 13:26:52;;;;;;;;;;;2.70;99.90;;;;;;5069223;28;19916;-77
2023/12/06 13:29:18;;;;;;;;;;;2.70;99.90;;;;;;5068403;28;19979;-77
2023/12/06 13:31:45;;;;;;;;;;;2.70;99.90;;;;;;5052891;28;19924;-77
2023/12/06 13:34:11;;;;;;;;;;;4.20;99.90;;;;;;5051238;28;20350;-76
2023/12/06 13:36:37;;;;;;;;;;;3.10;99.90;;;;;;5067446;28;20272;-76
2023/12/06 13:39:03;;;;;;;;;;;2.70;99.90;;;;;;5069482;28;19961;-75
2023/12/06 13:41:29;;;;;;;;;;;3.30;99.90;;;;;;5068467;28;19924;-75
2023/12/06 13:43:55;;;;;;;;;;;2.60;99.90;;;;;;5050450;28;19939;-76
2023/12/06 13:46:20;;;;;;;;;;;2.60;99.90;;;;;;5049396;28;19916;-76
2023/12/06 13:48:46;;;;;;;;;;;2.60;99.90;;;;;;5033600;28;20050;-76
2023/12/06 13:51:12;;;;;;;;;;;2.60;99.90;;;;;;5049383;28;19928;-76
2023/12/06 13:53:37;;;;;;;;;;;2.80;99.90;;;;;;5066375;28;19920;-75
2023/12/06 13:56:03;;;;;;;;;;;2.70;99.90;;;;;;5066472;28;19927;-76
2023/12/06 13:58:29;;;;;;;;;;;2.60;99.90;;;;;;5067420;28;20316;-77
2023/12/06 14:00:55;;;;;;;;;;;2.50;99.90;;;;;;5068168;28;19924;-76
2023/12/06 14:03:21;;;;;;;;;;;3.10;99.90;;;;;;5051799;28;19916;-76
2023/12/06 14:05:46;;;;;;;;;;;2.50;99.90;;;;;;5064841;28;19923;-76
2023/12/06 14:08:14;;;;;;;;;;;2.70;99.90;;;;;;5067991;28;20320;-76
2023/12/06 14:10:40;;;;;;;;;;;2.40;99.90;;;;;;5068921;28;19942;-76
2023/12/06 14:13:06;;;;;;;;;;;2.30;99.90;;;;;;5063112;28;19926;-76
2023/12/06 14:15:32;;;;;;;;;;;3.10;99.90;;;;;;5052279;28;19916;-76
2023/12/06 14:17:58;;;;;;;;;;;2.40;99.90;;;;;;5066031;28;19927;-76
2023/12/06 14:20:24;;;;;;;;;;;2.60;99.90;;;;;;5067132;28;19924;-76
2023/12/06 14:22:49;;;;;;;;;;;2.80;99.90;;;;;;5067102;28;19927;-75
2023/12/06 14:25:15;;;;;;;;;;;2.60;99.90;;;;;;5067182;28;19979;-76